sensor_id;sensor_type;location;lat;lon;timestamp;P1;durP1;ratioP1;P2;durP2;ratioP2
11414;SDS011;5763;42.714;23.244;2022-10-30T00:01:19;9.10;;;6.82;;
11414;SDS011;5763;42.714;23.244;2022-10-30T00:03:46;8.90;;;7.20;;
11414;SDS011;5763;42.714;23.244;2022-10-30T00:06:13;10.32;;;7.25;;
11414;SDS011;5763;42.714;23.244;2022-10-30T00:08:39;7.45;;;5.90;;
11414;SDS011;5763;42.714;23.244;2022-10-30T00:11:06;9.00;;;5.85;;
11414;SDS011;5763;42.714;23.244;2022-10-30T00:13:35;7.75;;;5.82;;
11414;SDS011;5763;42.714;23.244;2022-10-30T00:16:03;8.52;;;6.80;;
11414;SDS011;5763;42.714;23.244;2022-10-30T00:18:31;7.07;;;5.88;;
11414;SDS011;5763;42.714;23.244;2022-10-30T00:21:03;7.05;;;6.30;;
11414;SDS011;5763;42.714;23.244;2022-10-30T00:23:31;8.00;;;6.53;;
11414;SDS011;5763;42.714;23.244;2022-10-30T00:26:00;7.50;;;5.97;;
11414;SDS011;5763;42.714;23.244;2022-10-30T00:28:28;7.13;;;6.43;;
11414;SDS011;5763;42.714;23.244;2022-10-30T00:30:58;7.90;;;6.32;;
11414;SDS011;5763;42.714;23.244;2022-10-30T00:33:25;7.30;;;6.53;;
11414;SDS011;5763;42.714;23.244;2022-10-30T00:35:52;8.38;;;6.32;;
11414;SDS011;5763;42.714;23.244;2022-10-30T00:38:19;8.57;;;6.38;;
11414;SDS011;5763;42.714;23.244;2022-10-30T00:40:45;6.45;;;5.72;;
11414;SDS011;5763;42.714;23.244;2022-10-30T00:43:25;6.95;;;6.25;;
11414;SDS011;5763;42.714;23.244;2022-10-30T00:45:53;7.40;;;6.35;;
11414;SDS011;5763;42.714;23.244;2022-10-30T00:48:23;7.28;;;6.15;;
11414;SDS011;5763;42.714;23.244;2022-10-30T00:50:51;7.28;;;6.20;;
11414;SDS011;5763;42.714;23.244;2022-10-30T00:53:20;7.72;;;6.60;;
11414;SDS011;5763;42.714;23.244;2022-10-30T00:55:48;9.52;;;6.53;;
11414;SDS011;5763;42.714;23.244;2022-10-30T00:58:18;7.93;;;6.60;;
11414;SDS011;5763;42.714;23.244;2022-10-30T01:00:49;7.72;;;6.63;;
11414;SDS011;5763;42.714;23.244;2022-10-30T01:03:18;6.65;;;6.05;;
11414;SDS011;5763;42.714;23.244;2022-10-30T01:05:50;9.43;;;7.25;;
11414;SDS011;5763;42.714;23.244;2022-10-30T01:08:20;9.68;;;7.47;;
11414;SDS011;5763;42.714;23.244;2022-10-30T01:10:47;7.13;;;6.43;;
11414;SDS011;5763;42.714;23.244;2022-10-30T01:13:15;6.75;;;5.70;;
11414;SDS011;5763;42.714;23.244;2022-10-30T01:15:46;6.35;;;5.75;;
11414;SDS011;5763;42.714;23.244;2022-10-30T01:18:28;7.50;;;5.93;;
11414;SDS011;5763;42.714;23.244;2022-10-30T01:21:06;5.53;;;4.95;;
11414;SDS011;5763;42.714;23.244;2022-10-30T01:23:47;7.45;;;6.25;;
11414;SDS011;5763;42.714;23.244;2022-10-30T01:26:25;6.53;;;5.93;;
11414;SDS011;5763;42.714;23.244;2022-10-30T01:29:07;6.97;;;5.93;;
11414;SDS011;5763;42.714;23.244;2022-10-30T01:31:49;5.60;;;5.10;;
11414;SDS011;5763;42.714;23.244;2022-10-30T01:34:35;5.80;;;5.25;;
11414;SDS011;5763;42.714;23.244;2022-10-30T01:37:15;6.10;;;5.43;;
11414;SDS011;5763;42.714;23.244;2022-10-30T01:39:48;5.32;;;4.82;;
11414;SDS011;5763;42.714;23.244;2022-10-30T01:45:10;7.15;;;5.18;;
11414;SDS011;5763;42.714;23.244;2022-10-30T01:47:43;6.20;;;5.25;;
11414;SDS011;5763;42.714;23.244;2022-10-30T01:50:25;6.25;;;5.28;;
11414;SDS011;5763;42.714;23.244;2022-10-30T01:53:02;5.85;;;5.25;;
11414;SDS011;5763;42.714;23.244;2022-10-30T01:55:40;7.47;;;5.75;;
11414;SDS011;5763;42.714;23.244;2022-10-30T01:58:16;6.90;;;5.93;;
11414;SDS011;5763;42.714;23.244;2022-10-30T02:00:48;6.40;;;5.80;;
11414;SDS011;5763;42.714;23.244;2022-10-30T02:03:19;6.93;;;5.78;;
11414;SDS011;5763;42.714;23.244;2022-10-30T02:05:47;6.32;;;5.53;;
11414;SDS011;5763;42.714;23.244;2022-10-30T02:08:16;6.57;;;5.50;;
11414;SDS011;5763;42.714;23.244;2022-10-30T02:10:44;7.60;;;6.18;;
11414;SDS011;5763;42.714;23.244;2022-10-30T02:13:13;8.27;;;6.22;;
11414;SDS011;5763;42.714;23.244;2022-10-30T02:15:40;6.82;;;6.15;;
11414;SDS011;5763;42.714;23.244;2022-10-30T02:18:07;7.38;;;5.78;;
11414;SDS011;5763;42.714;23.244;2022-10-30T02:20:36;7.75;;;6.30;;
11414;SDS011;5763;42.714;23.244;2022-10-30T02:23:03;8.57;;;6.57;;
11414;SDS011;5763;42.714;23.244;2022-10-30T02:25:30;7.88;;;6.88;;
11414;SDS011;5763;42.714;23.244;2022-10-30T02:27:57;6.78;;;5.90;;
11414;SDS011;5763;42.714;23.244;2022-10-30T02:30:24;6.47;;;5.88;;
11414;SDS011;5763;42.714;23.244;2022-10-30T02:32:51;7.05;;;6.20;;
11414;SDS011;5763;42.714;23.244;2022-10-30T02:35:18;7.10;;;6.35;;
11414;SDS011;5763;42.714;23.244;2022-10-30T02:37:47;7.03;;;6.30;;
11414;SDS011;5763;42.714;23.244;2022-10-30T02:40:14;6.47;;;5.88;;
11414;SDS011;5763;42.714;23.244;2022-10-30T02:42:41;6.68;;;6.07;;
11414;SDS011;5763;42.714;23.244;2022-10-30T02:45:08;7.43;;;6.47;;
11414;SDS011;5763;42.714;23.244;2022-10-30T02:47:36;7.13;;;6.38;;
11414;SDS011;5763;42.714;23.244;2022-10-30T02:50:03;7.03;;;6.03;;
11414;SDS011;5763;42.714;23.244;2022-10-30T02:52:31;6.03;;;5.53;;
11414;SDS011;5763;42.714;23.244;2022-10-30T02:54:59;8.40;;;6.18;;
11414;SDS011;5763;42.714;23.244;2022-10-30T02:57:25;6.72;;;5.95;;
11414;SDS011;5763;42.714;23.244;2022-10-30T02:59:52;6.65;;;5.90;;
11414;SDS011;5763;42.714;23.244;2022-10-30T03:02:19;6.63;;;5.80;;
11414;SDS011;5763;42.714;23.244;2022-10-30T03:04:45;6.40;;;5.80;;
11414;SDS011;5763;42.714;23.244;2022-10-30T03:07:12;6.95;;;5.88;;
11414;SDS011;5763;42.714;23.244;2022-10-30T03:09:39;7.07;;;5.72;;
11414;SDS011;5763;42.714;23.244;2022-10-30T03:12:08;7.60;;;5.97;;
11414;SDS011;5763;42.714;23.244;2022-10-30T03:14:35;6.88;;;6.22;;
11414;SDS011;5763;42.714;23.244;2022-10-30T03:17:02;9.30;;;6.65;;
11414;SDS011;5763;42.714;23.244;2022-10-30T03:19:28;8.50;;;6.63;;
11414;SDS011;5763;42.714;23.244;2022-10-30T03:21:55;7.32;;;6.47;;
11414;SDS011;5763;42.714;23.244;2022-10-30T03:24:22;6.57;;;5.90;;
11414;SDS011;5763;42.714;23.244;2022-10-30T03:26:49;6.55;;;5.95;;
11414;SDS011;5763;42.714;23.244;2022-10-30T03:29:17;8.68;;;7.22;;
11414;SDS011;5763;42.714;23.244;2022-10-30T03:31:43;7.03;;;6.38;;
11414;SDS011;5763;42.714;23.244;2022-10-30T03:34:11;8.00;;;6.35;;
11414;SDS011;5763;42.714;23.244;2022-10-30T03:36:37;8.13;;;6.40;;
11414;SDS011;5763;42.714;23.244;2022-10-30T03:39:04;7.03;;;6.38;;
11414;SDS011;5763;42.714;23.244;2022-10-30T03:41:31;8.48;;;6.22;;
11414;SDS011;5763;42.714;23.244;2022-10-30T03:43:58;6.07;;;5.47;;
11414;SDS011;5763;42.714;23.244;2022-10-30T03:46:26;7.00;;;6.13;;
11414;SDS011;5763;42.714;23.244;2022-10-30T03:48:55;7.40;;;6.65;;
11414;SDS011;5763;42.714;23.244;2022-10-30T03:51:22;6.53;;;5.93;;
11414;SDS011;5763;42.714;23.244;2022-10-30T03:53:49;7.90;;;6.60;;
11414;SDS011;5763;42.714;23.244;2022-10-30T03:56:15;7.40;;;6.25;;
11414;SDS011;5763;42.714;23.244;2022-10-30T03:58:43;6.65;;;5.93;;
11414;SDS011;5763;42.714;23.244;2022-10-30T04:01:10;6.35;;;5.40;;
11414;SDS011;5763;42.714;23.244;2022-10-30T04:03:38;7.72;;;6.97;;
11414;SDS011;5763;42.714;23.244;2022-10-30T04:06:05;6.82;;;6.22;;
11414;SDS011;5763;42.714;23.244;2022-10-30T04:08:32;7.80;;;6.55;;
11414;SDS011;5763;42.714;23.244;2022-10-30T04:10:59;7.32;;;6.57;;
11414;SDS011;5763;42.714;23.244;2022-10-30T04:13:25;7.47;;;6.47;;
11414;SDS011;5763;42.714;23.244;2022-10-30T04:15:52;8.50;;;6.93;;
11414;SDS011;5763;42.714;23.244;2022-10-30T04:18:19;7.38;;;5.97;;
11414;SDS011;5763;42.714;23.244;2022-10-30T04:20:48;7.82;;;6.78;;
11414;SDS011;5763;42.714;23.244;2022-10-30T04:23:15;7.32;;;6.53;;
11414;SDS011;5763;42.714;23.244;2022-10-30T04:25:43;9.60;;;7.45;;
11414;SDS011;5763;42.714;23.244;2022-10-30T04:28:10;8.48;;;7.05;;
11414;SDS011;5763;42.714;23.244;2022-10-30T04:30:37;9.23;;;6.95;;
11414;SDS011;5763;42.714;23.244;2022-10-30T04:33:05;7.50;;;6.78;;
11414;SDS011;5763;42.714;23.244;2022-10-30T04:35:33;8.43;;;7.07;;
11414;SDS011;5763;42.714;23.244;2022-10-30T04:38:04;8.13;;;6.85;;
11414;SDS011;5763;42.714;23.244;2022-10-30T04:40:32;8.52;;;7.72;;
11414;SDS011;5763;42.714;23.244;2022-10-30T04:43:00;8.80;;;7.90;;
11414;SDS011;5763;42.714;23.244;2022-10-30T04:45:28;8.27;;;7.47;;
11414;SDS011;5763;42.714;23.244;2022-10-30T04:47:59;8.82;;;7.93;;
11414;SDS011;5763;42.714;23.244;2022-10-30T04:50:27;11.43;;;8.60;;
11414;SDS011;5763;42.714;23.244;2022-10-30T04:52:57;11.82;;;8.13;;
11414;SDS011;5763;42.714;23.244;2022-10-30T04:55:26;9.23;;;7.90;;
11414;SDS011;5763;42.714;23.244;2022-10-30T04:57:54;8.38;;;7.47;;
11414;SDS011;5763;42.714;23.244;2022-10-30T05:00:22;9.50;;;8.07;;
11414;SDS011;5763;42.714;23.244;2022-10-30T05:02:50;10.65;;;8.25;;
11414;SDS011;5763;42.714;23.244;2022-10-30T05:05:17;10.23;;;7.43;;
11414;SDS011;5763;42.714;23.244;2022-10-30T05:07:43;9.02;;;7.30;;
11414;SDS011;5763;42.714;23.244;2022-10-30T05:10:10;9.55;;;7.10;;
11414;SDS011;5763;42.714;23.244;2022-10-30T05:12:41;8.85;;;7.88;;
11414;SDS011;5763;42.714;23.244;2022-10-30T05:15:08;8.43;;;7.63;;
11414;SDS011;5763;42.714;23.244;2022-10-30T05:17:35;7.85;;;7.05;;
11414;SDS011;5763;42.714;23.244;2022-10-30T05:20:02;10.02;;;7.13;;
11414;SDS011;5763;42.714;23.244;2022-10-30T05:22:29;8.45;;;6.93;;
11414;SDS011;5763;42.714;23.244;2022-10-30T05:24:56;8.13;;;6.90;;
11414;SDS011;5763;42.714;23.244;2022-10-30T05:27:23;8.50;;;7.28;;
11414;SDS011;5763;42.714;23.244;2022-10-30T05:29:52;10.10;;;7.65;;
11414;SDS011;5763;42.714;23.244;2022-10-30T05:32:19;7.45;;;6.75;;
11414;SDS011;5763;42.714;23.244;2022-10-30T05:34:46;9.90;;;6.70;;
11414;SDS011;5763;42.714;23.244;2022-10-30T05:37:12;10.10;;;7.55;;
11414;SDS011;5763;42.714;23.244;2022-10-30T05:39:39;8.60;;;6.85;;
11414;SDS011;5763;42.714;23.244;2022-10-30T05:42:06;9.65;;;7.00;;
11414;SDS011;5763;42.714;23.244;2022-10-30T05:44:34;7.00;;;6.30;;
11414;SDS011;5763;42.714;23.244;2022-10-30T05:47:02;11.15;;;7.25;;
11414;SDS011;5763;42.714;23.244;2022-10-30T05:49:29;8.50;;;7.70;;
11414;SDS011;5763;42.714;23.244;2022-10-30T05:51:56;10.10;;;8.02;;
11414;SDS011;5763;42.714;23.244;2022-10-30T05:54:24;9.90;;;7.45;;
11414;SDS011;5763;42.714;23.244;2022-10-30T05:56:58;12.43;;;8.57;;
11414;SDS011;5763;42.714;23.244;2022-10-30T05:59:27;8.45;;;7.53;;
11414;SDS011;5763;42.714;23.244;2022-10-30T06:01:58;9.90;;;7.20;;
11414;SDS011;5763;42.714;23.244;2022-10-30T06:04:29;10.10;;;8.60;;
11414;SDS011;5763;42.714;23.244;2022-10-30T06:06:56;8.90;;;8.00;;
11414;SDS011;5763;42.714;23.244;2022-10-30T06:09:24;10.55;;;8.45;;
11414;SDS011;5763;42.714;23.244;2022-10-30T06:11:52;11.73;;;8.82;;
11414;SDS011;5763;42.714;23.244;2022-10-30T06:14:19;9.32;;;8.40;;
11414;SDS011;5763;42.714;23.244;2022-10-30T06:16:47;9.70;;;8.75;;
11414;SDS011;5763;42.714;23.244;2022-10-30T06:19:16;10.98;;;8.73;;
11414;SDS011;5763;42.714;23.244;2022-10-30T06:21:43;10.07;;;9.10;;
11414;SDS011;5763;42.714;23.244;2022-10-30T06:24:10;11.88;;;8.63;;
11414;SDS011;5763;42.714;23.244;2022-10-30T06:26:37;9.55;;;8.55;;
11414;SDS011;5763;42.714;23.244;2022-10-30T06:29:03;9.27;;;8.27;;
11414;SDS011;5763;42.714;23.244;2022-10-30T06:31:30;9.38;;;8.38;;
11414;SDS011;5763;42.714;23.244;2022-10-30T06:33:57;10.60;;;9.00;;
11414;SDS011;5763;42.714;23.244;2022-10-30T06:36:29;9.15;;;8.13;;
11414;SDS011;5763;42.714;23.244;2022-10-30T06:38:56;10.52;;;8.25;;
11414;SDS011;5763;42.714;23.244;2022-10-30T06:41:23;10.50;;;8.40;;
11414;SDS011;5763;42.714;23.244;2022-10-30T06:43:50;9.27;;;8.35;;
11414;SDS011;5763;42.714;23.244;2022-10-30T06:46:16;9.02;;;8.13;;
11414;SDS011;5763;42.714;23.244;2022-10-30T06:48:43;10.45;;;8.43;;
11414;SDS011;5763;42.714;23.244;2022-10-30T06:51:10;11.35;;;9.45;;
11414;SDS011;5763;42.714;23.244;2022-10-30T06:53:42;10.40;;;8.98;;
11414;SDS011;5763;42.714;23.244;2022-10-30T06:56:09;11.45;;;8.85;;
11414;SDS011;5763;42.714;23.244;2022-10-30T06:58:36;11.15;;;8.63;;
11414;SDS011;5763;42.714;23.244;2022-10-30T07:01:04;10.13;;;9.07;;
11414;SDS011;5763;42.714;23.244;2022-10-30T07:03:31;12.82;;;8.77;;
11414;SDS011;5763;42.714;23.244;2022-10-30T07:05:58;15.65;;;9.82;;
11414;SDS011;5763;42.714;23.244;2022-10-30T07:08:26;10.05;;;9.05;;
11414;SDS011;5763;42.714;23.244;2022-10-30T07:10:56;11.55;;;9.02;;
11414;SDS011;5763;42.714;23.244;2022-10-30T07:13:23;11.38;;;9.63;;
11414;SDS011;5763;42.714;23.244;2022-10-30T07:15:50;11.15;;;9.98;;
11414;SDS011;5763;42.714;23.244;2022-10-30T07:18:17;10.35;;;8.90;;
11414;SDS011;5763;42.714;23.244;2022-10-30T07:20:43;11.50;;;9.43;;
11414;SDS011;5763;42.714;23.244;2022-10-30T07:23:10;11.15;;;10.05;;
11414;SDS011;5763;42.714;23.244;2022-10-30T07:25:37;11.38;;;10.15;;
11414;SDS011;5763;42.714;23.244;2022-10-30T07:28:05;14.82;;;10.57;;
11414;SDS011;5763;42.714;23.244;2022-10-30T07:30:32;19.25;;;10.50;;
11414;SDS011;5763;42.714;23.244;2022-10-30T07:32:59;15.60;;;12.25;;
11414;SDS011;5763;42.714;23.244;2022-10-30T07:35:27;17.65;;;13.75;;
11414;SDS011;5763;42.714;23.244;2022-10-30T07:37:55;14.35;;;10.90;;
11414;SDS011;5763;42.714;23.244;2022-10-30T07:40:22;12.00;;;10.73;;
11414;SDS011;5763;42.714;23.244;2022-10-30T07:42:49;14.35;;;10.82;;
11414;SDS011;5763;42.714;23.244;2022-10-30T07:45:22;14.35;;;11.40;;
11414;SDS011;5763;42.714;23.244;2022-10-30T07:47:49;13.88;;;10.20;;
11414;SDS011;5763;42.714;23.244;2022-10-30T07:50:16;13.27;;;10.98;;
11414;SDS011;5763;42.714;23.244;2022-10-30T07:52:43;13.75;;;10.23;;
11414;SDS011;5763;42.714;23.244;2022-10-30T07:55:09;12.18;;;10.20;;
11414;SDS011;5763;42.714;23.244;2022-10-30T07:57:36;12.65;;;10.77;;
11414;SDS011;5763;42.714;23.244;2022-10-30T08:00:05;13.75;;;10.05;;
11414;SDS011;5763;42.714;23.244;2022-10-30T08:02:34;11.10;;;9.93;;
11414;SDS011;5763;42.714;23.244;2022-10-30T08:05:02;14.32;;;11.70;;
11414;SDS011;5763;42.714;23.244;2022-10-30T08:07:30;13.48;;;11.50;;
11414;SDS011;5763;42.714;23.244;2022-10-30T08:09:57;24.58;;;19.40;;
11414;SDS011;5763;42.714;23.244;2022-10-30T08:12:24;16.17;;;12.38;;
11414;SDS011;5763;42.714;23.244;2022-10-30T08:14:51;14.23;;;10.85;;
11414;SDS011;5763;42.714;23.244;2022-10-30T08:17:19;14.57;;;10.57;;
11414;SDS011;5763;42.714;23.244;2022-10-30T08:19:47;13.00;;;11.55;;
11414;SDS011;5763;42.714;23.244;2022-10-30T08:22:14;12.43;;;10.10;;
11414;SDS011;5763;42.714;23.244;2022-10-30T08:24:42;11.20;;;10.07;;
11414;SDS011;5763;42.714;23.244;2022-10-30T08:27:09;12.10;;;9.95;;
11414;SDS011;5763;42.714;23.244;2022-10-30T08:29:36;13.25;;;10.15;;
11414;SDS011;5763;42.714;23.244;2022-10-30T08:32:03;10.32;;;9.27;;
11414;SDS011;5763;42.714;23.244;2022-10-30T08:34:30;11.82;;;10.32;;
11414;SDS011;5763;42.714;23.244;2022-10-30T08:36:59;11.95;;;10.75;;
11414;SDS011;5763;42.714;23.244;2022-10-30T08:39:26;16.45;;;13.98;;
11414;SDS011;5763;42.714;23.244;2022-10-30T08:41:54;10.48;;;9.35;;
11414;SDS011;5763;42.714;23.244;2022-10-30T08:44:22;10.57;;;9.55;;
11414;SDS011;5763;42.714;23.244;2022-10-30T08:46:49;10.73;;;9.60;;
11414;SDS011;5763;42.714;23.244;2022-10-30T08:49:16;11.07;;;9.98;;
11414;SDS011;5763;42.714;23.244;2022-10-30T08:51:42;11.18;;;10.00;;
11414;SDS011;5763;42.714;23.244;2022-10-30T08:54:11;12.32;;;9.77;;
11414;SDS011;5763;42.714;23.244;2022-10-30T08:56:38;13.40;;;10.50;;
11414;SDS011;5763;42.714;23.244;2022-10-30T08:59:05;14.25;;;12.52;;
11414;SDS011;5763;42.714;23.244;2022-10-30T09:01:32;11.15;;;9.95;;
11414;SDS011;5763;42.714;23.244;2022-10-30T09:04:00;11.95;;;10.00;;
11414;SDS011;5763;42.714;23.244;2022-10-30T09:06:27;10.50;;;9.15;;
11414;SDS011;5763;42.714;23.244;2022-10-30T09:08:55;10.40;;;8.75;;
11414;SDS011;5763;42.714;23.244;2022-10-30T09:11:23;9.77;;;7.75;;
11414;SDS011;5763;42.714;23.244;2022-10-30T09:13:50;9.77;;;7.97;;
11414;SDS011;5763;42.714;23.244;2022-10-30T09:16:17;9.07;;;8.20;;
11414;SDS011;5763;42.714;23.244;2022-10-30T09:18:43;11.82;;;8.68;;
11414;SDS011;5763;42.714;23.244;2022-10-30T09:21:10;9.50;;;8.40;;
11414;SDS011;5763;42.714;23.244;2022-10-30T09:23:37;9.68;;;8.68;;
11414;SDS011;5763;42.714;23.244;2022-10-30T09:26:04;10.63;;;8.80;;
11414;SDS011;5763;42.714;23.244;2022-10-30T09:28:32;9.30;;;8.10;;
11414;SDS011;5763;42.714;23.244;2022-10-30T09:30:59;11.18;;;8.45;;
11414;SDS011;5763;42.714;23.244;2022-10-30T09:33:27;9.25;;;7.80;;
11414;SDS011;5763;42.714;23.244;2022-10-30T09:35:54;12.70;;;8.07;;
11414;SDS011;5763;42.714;23.244;2022-10-30T09:38:22;9.02;;;8.10;;
11414;SDS011;5763;42.714;23.244;2022-10-30T09:40:57;8.90;;;7.28;;
11414;SDS011;5763;42.714;23.244;2022-10-30T09:43:41;10.02;;;6.40;;
11414;SDS011;5763;42.714;23.244;2022-10-30T09:46:26;7.90;;;6.65;;
11414;SDS011;5763;42.714;23.244;2022-10-30T09:52:05;7.03;;;5.78;;
11414;SDS011;5763;42.714;23.244;2022-10-30T09:54:42;19.80;;;12.38;;
11414;SDS011;5763;42.714;23.244;2022-10-30T09:57:24;10.90;;;9.77;;
11414;SDS011;5763;42.714;23.244;2022-10-30T10:00:03;7.78;;;6.28;;
11414;SDS011;5763;42.714;23.244;2022-10-30T10:02:34;7.57;;;6.03;;
11414;SDS011;5763;42.714;23.244;2022-10-30T10:05:04;6.78;;;5.72;;
11414;SDS011;5763;42.714;23.244;2022-10-30T10:07:39;7.93;;;5.38;;
11414;SDS011;5763;42.714;23.244;2022-10-30T10:10:12;6.97;;;4.90;;
11414;SDS011;5763;42.714;23.244;2022-10-30T10:12:45;7.93;;;4.70;;
11414;SDS011;5763;42.714;23.244;2022-10-30T10:15:19;6.00;;;5.25;;
11414;SDS011;5763;42.714;23.244;2022-10-30T10:17:50;5.25;;;4.65;;
11414;SDS011;5763;42.714;23.244;2022-10-30T10:20:22;5.60;;;5.10;;
11414;SDS011;5763;42.714;23.244;2022-10-30T10:22:55;5.72;;;4.78;;
11414;SDS011;5763;42.714;23.244;2022-10-30T10:25:25;6.60;;;4.38;;
11414;SDS011;5763;42.714;23.244;2022-10-30T10:27:59;5.10;;;4.57;;
11414;SDS011;5763;42.714;23.244;2022-10-30T10:30:43;6.05;;;4.45;;
11414;SDS011;5763;42.714;23.244;2022-10-30T10:33:23;6.68;;;4.15;;
11414;SDS011;5763;42.714;23.244;2022-10-30T10:36:04;5.57;;;4.32;;
11414;SDS011;5763;42.714;23.244;2022-10-30T10:38:57;5.05;;;4.00;;
11414;SDS011;5763;42.714;23.244;2022-10-30T10:41:38;5.88;;;4.13;;
11414;SDS011;5763;42.714;23.244;2022-10-30T10:44:21;5.57;;;4.15;;
11414;SDS011;5763;42.714;23.244;2022-10-30T10:47:03;6.55;;;4.35;;
11414;SDS011;5763;42.714;23.244;2022-10-30T10:49:43;4.80;;;3.90;;
11414;SDS011;5763;42.714;23.244;2022-10-30T10:52:23;4.88;;;3.45;;
11414;SDS011;5763;42.714;23.244;2022-10-30T10:54:58;4.82;;;3.92;;
11414;SDS011;5763;42.714;23.244;2022-10-30T10:57:31;5.30;;;3.67;;
11414;SDS011;5763;42.714;23.244;2022-10-30T11:00:00;4.55;;;3.40;;
11414;SDS011;5763;42.714;23.244;2022-10-30T11:02:32;4.38;;;3.60;;
11414;SDS011;5763;42.714;23.244;2022-10-30T11:05:04;6.30;;;4.00;;
11414;SDS011;5763;42.714;23.244;2022-10-30T11:07:42;4.88;;;4.05;;
11414;SDS011;5763;42.714;23.244;2022-10-30T11:10:12;5.38;;;4.18;;
11414;SDS011;5763;42.714;23.244;2022-10-30T11:12:40;7.75;;;4.63;;
11414;SDS011;5763;42.714;23.244;2022-10-30T11:15:14;5.85;;;4.15;;
11414;SDS011;5763;42.714;23.244;2022-10-30T11:17:49;4.00;;;3.60;;
11414;SDS011;5763;42.714;23.244;2022-10-30T11:20:28;5.10;;;3.80;;
11414;SDS011;5763;42.714;23.244;2022-10-30T11:23:00;4.00;;;3.05;;
11414;SDS011;5763;42.714;23.244;2022-10-30T11:25:33;4.95;;;3.28;;
11414;SDS011;5763;42.714;23.244;2022-10-30T11:28:02;4.22;;;3.40;;
11414;SDS011;5763;42.714;23.244;2022-10-30T11:30:30;3.80;;;3.15;;
11414;SDS011;5763;42.714;23.244;2022-10-30T11:32:58;5.78;;;3.17;;
11414;SDS011;5763;42.714;23.244;2022-10-30T11:35:48;4.28;;;3.83;;
11414;SDS011;5763;42.714;23.244;2022-10-30T11:38:17;6.50;;;3.58;;
11414;SDS011;5763;42.714;23.244;2022-10-30T11:40:45;3.92;;;3.05;;
11414;SDS011;5763;42.714;23.244;2022-10-30T11:43:13;5.63;;;3.22;;
11414;SDS011;5763;42.714;23.244;2022-10-30T11:45:45;3.55;;;2.85;;
11414;SDS011;5763;42.714;23.244;2022-10-30T11:48:17;5.85;;;3.50;;
11414;SDS011;5763;42.714;23.244;2022-10-30T11:50:48;4.45;;;3.15;;
11414;SDS011;5763;42.714;23.244;2022-10-30T11:53:18;5.45;;;3.15;;
11414;SDS011;5763;42.714;23.244;2022-10-30T11:55:54;4.93;;;3.35;;
11414;SDS011;5763;42.714;23.244;2022-10-30T11:58:23;4.53;;;2.85;;
11414;SDS011;5763;42.714;23.244;2022-10-30T12:00:58;4.57;;;3.20;;
11414;SDS011;5763;42.714;23.244;2022-10-30T12:03:33;3.67;;;2.97;;
11414;SDS011;5763;42.714;23.244;2022-10-30T12:06:13;4.57;;;2.90;;
11414;SDS011;5763;42.714;23.244;2022-10-30T12:08:56;4.57;;;2.92;;
11414;SDS011;5763;42.714;23.244;2022-10-30T12:11:26;6.43;;;3.45;;
11414;SDS011;5763;42.714;23.244;2022-10-30T12:13:55;5.05;;;3.20;;
11414;SDS011;5763;42.714;23.244;2022-10-30T12:16:23;3.47;;;3.17;;
11414;SDS011;5763;42.714;23.244;2022-10-30T12:18:53;7.70;;;2.58;;
11414;SDS011;5763;42.714;23.244;2022-10-30T12:21:25;4.95;;;2.80;;
11414;SDS011;5763;42.714;23.244;2022-10-30T12:23:54;3.55;;;2.67;;
11414;SDS011;5763;42.714;23.244;2022-10-30T12:26:25;3.40;;;2.60;;
11414;SDS011;5763;42.714;23.244;2022-10-30T12:28:56;4.60;;;2.22;;
11414;SDS011;5763;42.714;23.244;2022-10-30T12:31:29;3.80;;;1.95;;
11414;SDS011;5763;42.714;23.244;2022-10-30T12:34:05;3.33;;;1.92;;
11414;SDS011;5763;42.714;23.244;2022-10-30T12:36:41;3.97;;;2.20;;
11414;SDS011;5763;42.714;23.244;2022-10-30T12:39:14;5.13;;;3.25;;
11414;SDS011;5763;42.714;23.244;2022-10-30T12:41:45;7.35;;;3.00;;
11414;SDS011;5763;42.714;23.244;2022-10-30T12:44:19;5.45;;;3.10;;
11414;SDS011;5763;42.714;23.244;2022-10-30T12:46:50;3.72;;;2.65;;
11414;SDS011;5763;42.714;23.244;2022-10-30T12:49:27;4.47;;;2.13;;
11414;SDS011;5763;42.714;23.244;2022-10-30T12:52:06;5.65;;;1.90;;
11414;SDS011;5763;42.714;23.244;2022-10-30T12:54:38;3.97;;;1.75;;
11414;SDS011;5763;42.714;23.244;2022-10-30T12:57:13;2.75;;;1.83;;
11414;SDS011;5763;42.714;23.244;2022-10-30T12:59:45;6.38;;;1.95;;
11414;SDS011;5763;42.714;23.244;2022-10-30T13:02:25;4.35;;;1.60;;
11414;SDS011;5763;42.714;23.244;2022-10-30T13:05:04;3.72;;;1.95;;
11414;SDS011;5763;42.714;23.244;2022-10-30T13:07:43;2.28;;;1.90;;
11414;SDS011;5763;42.714;23.244;2022-10-30T13:10:26;3.63;;;1.92;;
11414;SDS011;5763;42.714;23.244;2022-10-30T13:12:58;6.03;;;2.05;;
11414;SDS011;5763;42.714;23.244;2022-10-30T13:15:30;5.55;;;2.47;;
11414;SDS011;5763;42.714;23.244;2022-10-30T13:18:12;2.83;;;2.00;;
11414;SDS011;5763;42.714;23.244;2022-10-30T13:20:44;4.53;;;2.67;;
11414;SDS011;5763;42.714;23.244;2022-10-30T13:23:22;5.80;;;2.90;;
11414;SDS011;5763;42.714;23.244;2022-10-30T13:26:00;4.25;;;3.25;;
11414;SDS011;5763;42.714;23.244;2022-10-30T13:28:34;7.75;;;2.92;;
11414;SDS011;5763;42.714;23.244;2022-10-30T13:31:08;6.50;;;2.10;;
11414;SDS011;5763;42.714;23.244;2022-10-30T13:33:43;6.82;;;2.13;;
11414;SDS011;5763;42.714;23.244;2022-10-30T13:36:23;8.10;;;2.33;;
11414;SDS011;5763;42.714;23.244;2022-10-30T13:38:58;3.38;;;2.13;;
11414;SDS011;5763;42.714;23.244;2022-10-30T13:41:31;4.70;;;2.30;;
11414;SDS011;5763;42.714;23.244;2022-10-30T13:44:07;7.50;;;3.13;;
11414;SDS011;5763;42.714;23.244;2022-10-30T13:46:52;4.80;;;3.33;;
11414;SDS011;5763;42.714;23.244;2022-10-30T13:49:32;5.32;;;2.60;;
11414;SDS011;5763;42.714;23.244;2022-10-30T13:52:10;7.72;;;2.97;;
11414;SDS011;5763;42.714;23.244;2022-10-30T13:54:41;6.97;;;3.15;;
11414;SDS011;5763;42.714;23.244;2022-10-30T13:57:13;6.22;;;3.08;;
11414;SDS011;5763;42.714;23.244;2022-10-30T13:59:51;8.52;;;3.63;;
11414;SDS011;5763;42.714;23.244;2022-10-30T14:02:30;3.75;;;2.08;;
11414;SDS011;5763;42.714;23.244;2022-10-30T14:05:12;4.88;;;2.17;;
11414;SDS011;5763;42.714;23.244;2022-10-30T14:07:48;6.20;;;2.35;;
11414;SDS011;5763;42.714;23.244;2022-10-30T14:10:21;3.22;;;2.40;;
11414;SDS011;5763;42.714;23.244;2022-10-30T14:13:04;5.63;;;3.22;;
11414;SDS011;5763;42.714;23.244;2022-10-30T14:15:41;5.60;;;2.65;;
11414;SDS011;5763;42.714;23.244;2022-10-30T14:18:21;5.47;;;2.70;;
11414;SDS011;5763;42.714;23.244;2022-10-30T14:20:54;6.00;;;2.95;;
11414;SDS011;5763;42.714;23.244;2022-10-30T14:23:24;3.53;;;2.70;;
11414;SDS011;5763;42.714;23.244;2022-10-30T14:28:53;3.88;;;2.70;;
11414;SDS011;5763;42.714;23.244;2022-10-30T14:31:31;6.57;;;2.70;;
11414;SDS011;5763;42.714;23.244;2022-10-30T14:33:59;4.10;;;2.90;;
11414;SDS011;5763;42.714;23.244;2022-10-30T14:36:46;3.88;;;2.80;;
11414;SDS011;5763;42.714;23.244;2022-10-30T14:42:07;5.15;;;2.40;;
11414;SDS011;5763;42.714;23.244;2022-10-30T14:44:55;4.90;;;3.25;;
11414;SDS011;5763;42.714;23.244;2022-10-30T14:47:36;7.15;;;3.42;;
11414;SDS011;5763;42.714;23.244;2022-10-30T14:50:13;5.18;;;4.10;;
11414;SDS011;5763;42.714;23.244;2022-10-30T14:52:52;6.50;;;3.05;;
11414;SDS011;5763;42.714;23.244;2022-10-30T14:55:32;5.82;;;3.28;;
11414;SDS011;5763;42.714;23.244;2022-10-30T14:58:13;3.92;;;2.60;;
11414;SDS011;5763;42.714;23.244;2022-10-30T15:00:44;7.63;;;3.30;;
11414;SDS011;5763;42.714;23.244;2022-10-30T15:03:18;5.28;;;2.72;;
11414;SDS011;5763;42.714;23.244;2022-10-30T15:05:58;5.05;;;2.90;;
11414;SDS011;5763;42.714;23.244;2022-10-30T15:08:40;7.03;;;2.78;;
11414;SDS011;5763;42.714;23.244;2022-10-30T15:11:24;4.43;;;2.33;;
11414;SDS011;5763;42.714;23.244;2022-10-30T15:13:57;3.65;;;3.10;;
11414;SDS011;5763;42.714;23.244;2022-10-30T15:16:26;4.75;;;3.00;;